CheckWX is a tool to help pilots better visualize weather data.  It is not intended as a substitute for an official pre-flight weather briefing.

08:01:45 UTC

OPIS TAF
Islamabad International Airport
Islamabad, Pakistan
TAF OPIS 190315Z 1906/2012 06006KT 3000 DZ SCT030 OVC080 FM190700 09008G18KT 2000 -TSRA FEW020CB SCT030 OVC080 TEMPO 1920/2002 09006KT 4000 -RA SCT040 BKN100

Mar-19@
06:00 UTC

Mar-19 @ 06:00 UTC

Mar-19@
07:00 UTC

Mar-19 @ 07:00 UTC

TAF OPIS 190315Z 1906/2012 06006KT 3000 DZ SCT030 OVC080

Expired

Wind
  • 060° at 6 KTS
Conditions
Drizzle
Cloud Levels
  • Scattered at 3,000' AGL
  • Overcast at 8,000' AGL

Mar-19@
07:00 UTC

Mar-19 @ 07:00 UTC

Mar-20@
12:00 UTC

Mar-20 @ 12:00 UTC

FM190700 09008G18KT 2000 -TSRA FEW020CB SCT030 OVC080

From

From Standard forecast or significant change

Wind
  • 090° at 8 KTS
  • {Gusting to 18 KTS
Conditions
Light Thunderstorm, Light Rain
Cloud Levels
  • Few at 2,000' AGL
  • Scattered at 3,000' AGL
  • Overcast at 8,000' AGL

Mar-19@
20:00 UTC

Mar-19 @ 20:00 UTC

Mar-20@
02:00 UTC

Mar-20 @ 02:00 UTC

TEMPO 1920/2002 09006KT 4000 -RA SCT040 BKN100

Temporary

Temporary Changes expected for less than half the time period

Wind
  • 090° at 6 KTS
Conditions
Light Rain
Cloud Levels
  • Scattered at 4,000' AGL
  • Broken at 10,000' AGL